createdAt,value
2018-02-01T00:00:47.398Z,0.00
2018-02-01T00:01:47.352Z,0.00
2018-02-01T00:02:47.303Z,0.00
2018-02-01T00:03:47.254Z,0.00
2018-02-01T00:04:47.211Z,0.00
2018-02-01T00:05:47.162Z,0.00
2018-02-01T00:06:47.111Z,0.00
2018-02-01T00:07:50.870Z,0.00
2018-02-01T00:08:47.016Z,0.00
2018-02-01T00:09:46.974Z,0.00
2018-02-01T00:10:46.922Z,0.00
2018-02-01T00:11:46.880Z,0.00
2018-02-01T00:12:46.826Z,0.00
2018-02-01T00:13:46.779Z,0.00
2018-02-01T00:14:46.732Z,0.00
2018-02-01T00:15:46.685Z,0.00
2018-02-01T00:16:46.635Z,0.00
2018-02-01T00:17:46.589Z,0.00
2018-02-01T00:18:46.542Z,0.00
2018-02-01T00:19:46.494Z,0.00
2018-02-01T00:20:46.446Z,0.00
2018-02-01T00:21:46.398Z,0.00
2018-02-01T00:22:46.349Z,0.00
2018-02-01T00:23:46.302Z,0.00
2018-02-01T00:24:46.254Z,0.00
2018-02-01T00:25:46.205Z,0.00
2018-02-01T00:26:46.159Z,0.00
2018-02-01T00:27:46.109Z,0.00
2018-02-01T00:28:46.066Z,0.00
2018-02-01T00:29:46.015Z,0.00
2018-02-01T00:30:45.969Z,0.00
2018-02-01T00:31:45.919Z,0.00
2018-02-01T00:32:45.873Z,0.00
2018-02-01T00:33:45.824Z,0.00
2018-02-01T00:34:45.781Z,0.00
2018-02-01T00:35:45.732Z,0.00
2018-02-01T00:36:45.681Z,0.00
2018-02-01T00:37:45.632Z,0.00
2018-02-01T00:38:45.597Z,0.00
2018-02-01T00:39:45.537Z,0.00
2018-02-01T00:40:45.488Z,0.00
2018-02-01T00:41:45.442Z,0.00
2018-02-01T00:42:45.395Z,0.00
2018-02-01T00:43:45.347Z,0.00
2018-02-01T00:44:45.301Z,0.00
2018-02-01T00:45:45.251Z,0.00
2018-02-01T00:46:45.201Z,0.00
2018-02-01T00:47:45.156Z,0.00
2018-02-01T00:48:45.114Z,0.00
2018-02-01T00:49:45.060Z,0.00
2018-02-01T00:50:45.012Z,0.00
2018-02-01T00:51:44.974Z,0.00
2018-02-01T00:52:44.917Z,0.00
2018-02-01T00:53:44.869Z,0.00
2018-02-01T00:54:44.819Z,0.00
2018-02-01T00:55:44.772Z,0.00
2018-02-01T00:56:44.727Z,0.00
2018-02-01T00:57:44.675Z,0.00
2018-02-01T00:58:44.628Z,0.00
2018-02-01T00:59:44.585Z,0.00
2018-02-01T01:00:44.533Z,0.00
2018-02-01T01:01:44.488Z,0.00
2018-02-01T01:02:44.441Z,0.00
2018-02-01T01:03:44.389Z,0.00
2018-02-01T01:04:44.340Z,0.00
2018-02-01T01:05:44.295Z,0.00
2018-02-01T01:06:44.245Z,0.00
2018-02-01T01:07:44.196Z,0.00
2018-02-01T01:08:44.152Z,0.00
2018-02-01T01:09:44.107Z,0.00
2018-02-01T01:10:44.054Z,0.00
2018-02-01T01:11:44.010Z,0.00
2018-02-01T01:12:43.959Z,0.00
2018-02-01T01:13:43.916Z,0.00
2018-02-01T01:14:43.864Z,0.00
2018-02-01T01:15:43.817Z,0.00
2018-02-01T01:16:43.774Z,0.00
2018-02-01T01:17:43.724Z,0.00
2018-02-01T01:18:43.672Z,0.00
2018-02-01T01:19:43.625Z,0.00
2018-02-01T01:20:43.578Z,0.00
2018-02-01T01:21:43.535Z,0.00
2018-02-01T01:22:43.485Z,0.00
2018-02-01T01:23:43.433Z,0.00
2018-02-01T01:24:43.389Z,0.00
2018-02-01T01:25:43.340Z,0.00
2018-02-01T01:26:43.292Z,0.00
2018-02-01T01:27:43.245Z,0.00
2018-02-01T01:28:43.195Z,0.00
2018-02-01T01:29:43.155Z,0.00
2018-02-01T01:30:43.102Z,0.00
2018-02-01T01:31:43.054Z,0.00
2018-02-01T01:32:43.005Z,0.00
2018-02-01T01:33:42.960Z,0.00
2018-02-01T01:34:42.909Z,0.00
2018-02-01T01:35:42.861Z,0.00
2018-02-01T01:36:42.815Z,0.00
2018-02-01T01:37:42.768Z,0.00
2018-02-01T01:38:42.717Z,0.00
2018-02-01T01:39:42.675Z,0.00
2018-02-01T01:40:42.623Z,0.00
2018-02-01T01:41:42.578Z,0.00
2018-02-01T01:42:42.530Z,0.00
2018-02-01T01:43:42.491Z,0.00
2018-02-01T01:44:42.435Z,0.00
2018-02-01T01:45:42.391Z,0.00
2018-02-01T01:46:42.336Z,0.00
2018-02-01T01:47:42.301Z,0.00
2018-02-01T01:48:42.240Z,0.00
2018-02-01T01:49:42.197Z,0.00
2018-02-01T01:50:42.152Z,0.00
2018-02-01T01:51:42.098Z,0.00
2018-02-01T01:52:42.057Z,0.00
2018-02-01T01:53:42.002Z,0.00
2018-02-01T01:54:41.955Z,0.00
2018-02-01T01:55:41.912Z,0.00
2018-02-01T01:56:41.869Z,0.00
2018-02-01T01:57:41.811Z,0.00
2018-02-01T01:58:41.765Z,0.00
2018-02-01T01:59:41.715Z,0.00
2018-02-01T02:00:41.668Z,0.00
2018-02-01T02:01:41.623Z,0.00
2018-02-01T02:02:41.574Z,0.00
2018-02-01T02:03:41.527Z,0.00
2018-02-01T02:04:41.475Z,0.00
2018-02-01T02:05:41.429Z,0.00
2018-02-01T02:06:41.379Z,0.00
2018-02-01T02:07:41.334Z,0.00
2018-02-01T02:08:41.286Z,0.00
2018-02-01T02:09:41.236Z,0.00
2018-02-01T02:10:41.188Z,0.00
2018-02-01T02:11:41.141Z,0.00
2018-02-01T02:12:41.092Z,0.00
2018-02-01T02:13:41.045Z,0.00
2018-02-01T02:14:40.997Z,0.00
2018-02-01T02:15:40.959Z,0.00
2018-02-01T02:16:40.899Z,0.00
2018-02-01T02:17:40.856Z,0.00
2018-02-01T02:18:40.807Z,0.00
2018-02-01T02:19:40.767Z,0.00
2018-02-01T02:20:40.710Z,0.00
2018-02-01T02:21:40.660Z,0.00
2018-02-01T02:22:40.614Z,0.00
2018-02-01T02:23:40.564Z,0.00
2018-02-01T02:24:40.538Z,0.00
2018-02-01T02:25:40.470Z,0.00
2018-02-01T02:26:40.426Z,0.00
2018-02-01T02:27:40.372Z,0.00
2018-02-01T02:28:40.326Z,0.00
2018-02-01T02:29:40.280Z,0.00
2018-02-01T02:30:40.237Z,0.00
2018-02-01T02:31:40.189Z,0.00
2018-02-01T02:32:40.135Z,0.00
2018-02-01T02:33:40.087Z,0.00
2018-02-01T02:34:40.036Z,0.00
2018-02-01T02:35:39.992Z,0.00
2018-02-01T02:36:39.947Z,0.00
2018-02-01T02:37:39.895Z,0.00
2018-02-01T02:38:39.845Z,0.00
2018-02-01T02:39:39.798Z,0.00
2018-02-01T02:40:39.750Z,0.00
2018-02-01T02:41:39.700Z,0.00
2018-02-01T02:42:39.654Z,0.00
2018-02-01T02:43:39.604Z,0.00
2018-02-01T02:44:39.556Z,0.00
2018-02-01T02:45:39.514Z,0.00
2018-02-01T02:46:39.462Z,0.00
2018-02-01T02:47:39.416Z,0.00
2018-02-01T02:48:39.363Z,0.00
2018-02-01T02:49:39.314Z,0.00
2018-02-01T02:50:39.273Z,0.00
2018-02-01T02:51:39.221Z,0.00
2018-02-01T02:52:39.181Z,0.00
2018-02-01T02:53:39.123Z,0.00
2018-02-01T02:54:39.075Z,0.00
2018-02-01T02:55:39.025Z,0.00
2018-02-01T02:56:38.985Z,0.00
2018-02-01T02:57:38.930Z,0.00
2018-02-01T02:58:38.887Z,0.00
2018-02-01T02:59:38.837Z,0.00
2018-02-01T03:00:38.791Z,0.00
2018-02-01T03:01:38.738Z,0.00
2018-02-01T03:02:38.692Z,0.00
2018-02-01T03:03:38.643Z,0.00
2018-02-01T03:04:38.603Z,0.00
2018-02-01T03:05:38.546Z,0.00
2018-02-01T03:06:38.496Z,0.00
2018-02-01T03:07:38.451Z,0.00
2018-02-01T03:08:38.400Z,0.00
2018-02-01T03:09:38.352Z,0.00
2018-02-01T03:10:38.303Z,0.00
2018-02-01T03:11:38.258Z,0.00
2018-02-01T03:12:38.209Z,0.00
2018-02-01T03:13:38.160Z,0.00
2018-02-01T03:14:38.113Z,0.00
2018-02-01T03:15:38.064Z,0.00
2018-02-01T03:16:38.018Z,0.00
2018-02-01T03:17:37.968Z,0.00
2018-02-01T03:18:37.922Z,0.00
2018-02-01T03:19:37.870Z,0.00
2018-02-01T03:20:37.822Z,0.00
2018-02-01T03:21:37.778Z,0.00
2018-02-01T03:22:37.727Z,0.00
2018-02-01T03:23:37.685Z,0.00
2018-02-01T03:24:37.634Z,0.00
2018-02-01T03:25:37.606Z,0.00
2018-02-01T03:26:37.537Z,0.00
2018-02-01T03:27:37.485Z,0.00
2018-02-01T03:28:37.436Z,0.00
2018-02-01T03:29:37.391Z,0.00
2018-02-01T03:30:37.341Z,0.00
2018-02-01T03:31:37.296Z,0.00
2018-02-01T03:32:37.246Z,0.00
2018-02-01T03:33:37.199Z,0.00
2018-02-01T03:34:37.150Z,0.00
2018-02-01T03:35:37.099Z,0.00
2018-02-01T03:36:37.054Z,0.00
2018-02-01T03:37:37.002Z,0.00
2018-02-01T03:38:36.954Z,0.00
2018-02-01T03:39:36.903Z,0.00
2018-02-01T03:40:36.854Z,0.00
2018-02-01T03:41:36.808Z,0.00
2018-02-01T03:42:36.761Z,0.00
2018-02-01T03:43:36.716Z,0.00
2018-02-01T03:44:36.663Z,0.00
2018-02-01T03:45:36.615Z,0.00
2018-02-01T03:46:36.568Z,0.00
2018-02-01T03:47:36.519Z,0.00
2018-02-01T03:48:36.477Z,0.00
2018-02-01T03:49:36.426Z,0.00
2018-02-01T03:50:36.378Z,0.00
2018-02-01T03:51:36.328Z,0.00
2018-02-01T03:52:36.277Z,0.00
2018-02-01T03:53:36.241Z,0.00
2018-02-01T03:54:36.183Z,0.00
2018-02-01T03:55:36.133Z,0.00
2018-02-01T03:56:36.083Z,0.00
2018-02-01T03:57:36.034Z,0.00
2018-02-01T03:58:35.989Z,0.00
2018-02-01T03:59:35.939Z,0.00
2018-02-01T04:00:35.894Z,0.00
2018-02-01T04:01:35.841Z,0.00
2018-02-01T04:02:35.793Z,0.00
2018-02-01T04:03:35.745Z,0.00
2018-02-01T04:04:35.694Z,0.00
2018-02-01T04:05:35.647Z,0.00
2018-02-01T04:06:35.600Z,0.00
2018-02-01T04:07:35.554Z,0.00
2018-02-01T04:08:35.502Z,0.00
2018-02-01T04:09:35.455Z,0.00
2018-02-01T04:10:35.408Z,0.00
2018-02-01T04:11:35.356Z,0.00
2018-02-01T04:12:35.309Z,0.00
2018-02-01T04:13:35.268Z,0.00
2018-02-01T04:14:35.211Z,0.00
2018-02-01T04:15:35.168Z,0.00
2018-02-01T04:16:35.114Z,0.00
2018-02-01T04:17:35.067Z,0.00
2018-02-01T04:18:35.016Z,0.00
2018-02-01T04:19:34.971Z,0.00
2018-02-01T04:20:34.921Z,0.00
2018-02-01T04:21:34.877Z,0.00
2018-02-01T04:22:34.827Z,0.00
2018-02-01T04:23:34.774Z,0.00
2018-02-01T04:24:34.731Z,0.00
2018-02-01T04:25:34.683Z,0.00
2018-02-01T04:26:34.629Z,0.00
2018-02-01T04:27:34.582Z,0.00
2018-02-01T04:28:34.535Z,0.00
2018-02-01T04:29:34.488Z,0.00
2018-02-01T04:30:34.480Z,0.00
2018-02-01T04:31:34.389Z,0.00
2018-02-01T04:32:34.341Z,0.00
2018-02-01T04:33:34.291Z,0.00
2018-02-01T04:34:34.243Z,0.00
2018-02-01T04:35:34.193Z,0.00
2018-02-01T04:36:34.146Z,0.00
2018-02-01T04:37:34.101Z,0.00
2018-02-01T04:38:34.047Z,0.00
2018-02-01T04:39:34.004Z,0.00
2018-02-01T04:40:33.954Z,0.00
2018-02-01T04:41:33.901Z,0.00
2018-02-01T04:42:33.854Z,0.00
2018-02-01T04:43:33.810Z,0.00
2018-02-01T04:44:33.756Z,0.00
2018-02-01T04:45:33.711Z,0.00
2018-02-01T04:46:33.663Z,0.00
2018-02-01T04:47:33.613Z,0.00
2018-02-01T04:48:33.562Z,0.00
2018-02-01T04:49:33.515Z,0.00
2018-02-01T04:50:33.473Z,0.00
2018-02-01T04:51:33.416Z,0.00
2018-02-01T04:52:33.368Z,0.00
2018-02-01T04:53:33.323Z,0.00
2018-02-01T04:54:33.271Z,0.00
2018-02-01T04:55:33.225Z,0.00
2018-02-01T04:56:33.180Z,0.00
2018-02-01T04:57:33.128Z,0.00
2018-02-01T04:58:33.080Z,0.00
2018-02-01T04:59:33.032Z,0.00
2018-02-01T05:00:32.979Z,0.00
2018-02-01T05:01:32.933Z,0.00
2018-02-01T05:02:32.884Z,0.00
2018-02-01T05:03:32.838Z,0.00
2018-02-01T05:04:32.793Z,0.00
2018-02-01T05:05:32.736Z,0.00
2018-02-01T05:06:32.689Z,0.00
2018-02-01T05:07:32.639Z,0.00
2018-02-01T05:08:32.591Z,0.00
2018-02-01T05:09:32.550Z,0.00
2018-02-01T05:10:32.497Z,0.00
2018-02-01T05:11:32.459Z,0.00
2018-02-01T05:12:32.403Z,0.00
2018-02-01T05:13:32.354Z,0.00
2018-02-01T05:14:32.305Z,0.00
2018-02-01T05:15:32.255Z,0.00
2018-02-01T05:16:32.208Z,0.00
2018-02-01T05:17:32.169Z,0.00
2018-02-01T05:18:32.112Z,0.00
2018-02-01T05:19:32.062Z,0.00
2018-02-01T05:20:32.015Z,0.00
2018-02-01T05:21:31.967Z,0.00
2018-02-01T05:22:31.913Z,0.00
2018-02-01T05:23:31.868Z,0.00
2018-02-01T05:24:31.821Z,0.00
2018-02-01T05:25:31.771Z,0.00
2018-02-01T05:26:31.729Z,0.00
2018-02-01T05:27:31.671Z,0.00
2018-02-01T05:28:31.630Z,0.00
2018-02-01T05:29:31.579Z,0.00
2018-02-01T05:30:31.530Z,0.00
2018-02-01T05:31:31.480Z,0.00
2018-02-01T05:32:31.433Z,0.00
2018-02-01T05:33:31.383Z,0.00
2018-02-01T05:34:31.334Z,0.00
2018-02-01T05:35:31.287Z,0.00
2018-02-01T05:36:31.242Z,0.00
2018-02-01T05:37:31.189Z,0.00
2018-02-01T05:38:31.142Z,0.00
2018-02-01T05:39:31.092Z,0.00
2018-02-01T05:40:31.046Z,0.00
2018-02-01T05:41:30.998Z,0.00
2018-02-01T05:42:30.945Z,0.00
2018-02-01T05:43:30.899Z,0.00
2018-02-01T05:44:30.848Z,0.00
2018-02-01T05:45:30.802Z,0.00
2018-02-01T05:46:30.751Z,0.00
2018-02-01T05:47:30.708Z,0.00
2018-02-01T05:48:30.661Z,0.00
2018-02-01T05:49:30.609Z,0.00
2018-02-01T05:50:30.557Z,0.00
2018-02-01T05:51:30.512Z,0.00
2018-02-01T05:52:30.462Z,0.00
2018-02-01T05:53:30.412Z,0.00
2018-02-01T05:54:30.366Z,0.00
2018-02-01T05:55:30.316Z,0.00
2018-02-01T05:56:30.266Z,0.00
2018-02-01T05:57:30.219Z,0.00
2018-02-01T05:58:30.168Z,0.00
2018-02-01T05:59:30.122Z,0.00
2018-02-01T06:00:30.069Z,0.00
2018-02-01T06:01:30.025Z,0.00
2018-02-01T06:02:29.974Z,0.00
2018-02-01T06:03:29.923Z,0.00
2018-02-01T06:04:29.875Z,0.00
2018-02-01T06:05:29.828Z,0.00
2018-02-01T06:06:29.776Z,0.00
2018-02-01T06:07:29.728Z,0.00
2018-02-01T06:08:29.686Z,0.00
2018-02-01T06:09:29.634Z,0.00
2018-02-01T06:10:29.583Z,0.00
2018-02-01T06:11:29.538Z,0.00
2018-02-01T06:12:29.485Z,0.00
2018-02-01T06:13:29.436Z,0.00
2018-02-01T06:14:29.390Z,0.00
2018-02-01T06:15:29.339Z,0.00
2018-02-01T06:16:29.296Z,0.00
2018-02-01T06:17:29.242Z,0.00
2018-02-01T06:18:29.195Z,0.00
2018-02-01T06:19:29.145Z,0.00
2018-02-01T06:20:29.094Z,0.00
2018-02-01T06:21:29.049Z,0.00
2018-02-01T06:22:29.003Z,0.00
2018-02-01T06:23:28.964Z,0.00
2018-02-01T06:24:28.910Z,0.00
2018-02-01T06:25:28.857Z,0.00
2018-02-01T06:26:28.807Z,0.00
2018-02-01T06:27:28.766Z,0.00
2018-02-01T06:28:28.704Z,0.00
2018-02-01T06:29:28.660Z,0.00
2018-02-01T06:30:28.611Z,0.00
2018-02-01T06:31:28.568Z,0.00
2018-02-01T06:32:28.513Z,0.00
2018-02-01T06:33:28.462Z,0.00
2018-02-01T06:34:28.414Z,0.00
2018-02-01T06:35:28.379Z,0.00
2018-02-01T06:36:28.334Z,0.00
2018-02-01T06:37:28.278Z,0.00
2018-02-01T06:38:28.221Z,0.00
2018-02-01T06:39:28.171Z,0.00
2018-02-01T06:40:28.122Z,0.00
2018-02-01T06:41:28.072Z,0.00
2018-02-01T06:42:28.024Z,0.00
2018-02-01T06:43:27.975Z,0.00
2018-02-01T06:44:27.927Z,0.00
2018-02-01T06:45:27.877Z,0.00
2018-02-01T06:46:27.827Z,4.00
2018-02-01T06:47:27.779Z,4.00
2018-02-01T06:48:27.742Z,0.00
2018-02-01T06:49:27.683Z,4.00
2018-02-01T06:50:27.634Z,4.00
2018-02-01T06:51:27.583Z,4.00
2018-02-01T06:52:27.535Z,8.00
2018-02-01T06:53:27.487Z,4.00
2018-02-01T06:54:27.442Z,8.00
2018-02-01T06:55:27.389Z,8.00
2018-02-01T06:56:27.340Z,12.00
2018-02-01T06:57:27.298Z,12.00
2018-02-01T06:58:27.241Z,12.00
2018-02-01T06:59:27.223Z,16.00
2018-02-01T07:00:27.149Z,20.00
2018-02-01T07:01:27.097Z,24.00
2018-02-01T07:02:27.050Z,28.00
2018-02-01T07:03:26.999Z,28.00
2018-02-01T07:04:26.951Z,28.00
2018-02-01T07:05:26.902Z,32.00
2018-02-01T07:06:26.891Z,32.00
2018-02-01T07:07:26.804Z,36.00
2018-02-01T07:08:26.762Z,36.00
2018-02-01T07:09:26.710Z,44.00
2018-02-01T07:10:26.668Z,52.00
2018-02-01T07:11:26.610Z,60.00
2018-02-01T07:12:26.563Z,64.00
2018-02-01T07:13:26.513Z,68.00
2018-02-01T07:14:26.464Z,88.00
2018-02-01T07:15:26.415Z,104.00
2018-02-01T07:16:26.366Z,116.00
2018-02-01T07:17:26.318Z,128.00
2018-02-01T07:18:26.270Z,140.00
2018-02-01T07:19:26.221Z,148.00
2018-02-01T07:20:26.171Z,164.00
2018-02-01T07:21:26.124Z,176.00
2018-02-01T07:22:26.079Z,188.00
2018-02-01T07:23:26.028Z,204.00
2018-02-01T07:24:25.978Z,212.00
2018-02-01T07:25:25.929Z,228.00
2018-02-01T07:26:25.878Z,240.00
2018-02-01T07:27:25.831Z,252.00
2018-02-01T07:28:25.784Z,268.00
2018-02-01T07:29:25.734Z,276.00
2018-02-01T07:30:25.692Z,292.00
2018-02-01T07:31:25.639Z,308.00
2018-02-01T07:32:25.591Z,320.00
2018-02-01T07:33:25.544Z,336.00
2018-02-01T07:34:25.497Z,348.00
2018-02-01T07:35:25.441Z,364.00
2018-02-01T07:36:25.395Z,380.00
2018-02-01T07:37:25.347Z,392.00
2018-02-01T07:38:25.296Z,404.00
2018-02-01T07:39:25.249Z,420.00
2018-02-01T07:40:25.201Z,436.00
2018-02-01T07:41:25.149Z,448.00
2018-02-01T07:42:25.104Z,460.00
2018-02-01T07:43:25.056Z,476.00
2018-02-01T07:44:25.010Z,492.00
2018-02-01T07:45:24.955Z,504.00
2018-02-01T07:46:24.906Z,524.00
2018-02-01T07:47:24.859Z,540.00
2018-02-01T07:48:24.809Z,548.00
2018-02-01T07:49:24.762Z,564.00
2018-02-01T07:50:24.712Z,576.00
2018-02-01T07:51:24.667Z,596.00
2018-02-01T07:52:24.617Z,608.00
2018-02-01T07:53:24.622Z,624.00
2018-02-01T07:54:24.518Z,644.00
2018-02-01T07:55:24.472Z,656.00
2018-02-01T07:56:24.420Z,672.00
2018-02-01T07:57:24.373Z,688.00
2018-02-01T07:58:24.322Z,700.00
2018-02-01T07:59:24.274Z,704.00
2018-02-01T08:00:24.230Z,712.00
2018-02-01T08:01:24.181Z,720.00
2018-02-01T08:02:24.131Z,724.00
2018-02-01T08:03:24.082Z,728.00
2018-02-01T08:04:24.032Z,736.00
2018-02-01T08:05:23.987Z,736.00
2018-02-01T08:06:23.940Z,744.00
2018-02-01T08:07:23.888Z,748.00
2018-02-01T08:08:23.840Z,756.00
2018-02-01T08:09:23.792Z,760.00
2018-02-01T08:10:23.741Z,768.00
2018-02-01T08:11:23.691Z,776.00
2018-02-01T08:12:23.643Z,784.00
2018-02-01T08:13:23.602Z,792.00
2018-02-01T08:14:23.553Z,800.00
2018-02-01T08:15:23.501Z,812.00
2018-02-01T08:16:23.454Z,820.00
2018-02-01T08:17:23.406Z,828.00
2018-02-01T08:18:23.357Z,840.00
2018-02-01T08:19:23.308Z,848.00
2018-02-01T08:20:23.259Z,852.00
2018-02-01T08:21:23.206Z,864.00
2018-02-01T08:22:23.158Z,868.00
2018-02-01T08:23:23.111Z,880.00
2018-02-01T08:24:23.066Z,888.00
2018-02-01T08:25:23.013Z,900.00
2018-02-01T08:26:22.965Z,912.00
2018-02-01T08:27:22.919Z,928.00
2018-02-01T08:28:22.867Z,944.00
2018-02-01T08:29:22.820Z,960.00
2018-02-01T08:30:22.772Z,976.00
2018-02-01T08:31:22.725Z,956.00
2018-02-01T08:32:22.676Z,1012.00
2018-02-01T08:33:22.626Z,1028.00
2018-02-01T08:34:22.583Z,1048.00
2018-02-01T08:35:22.534Z,1060.00
2018-02-01T08:36:22.486Z,1060.00
2018-02-01T08:37:22.433Z,1112.00
2018-02-01T08:38:22.386Z,1176.00
2018-02-01T08:39:22.340Z,1196.00
2018-02-01T08:40:22.292Z,1204.00
2018-02-01T08:41:22.244Z,1224.00
2018-02-01T08:42:22.190Z,1224.00
2018-02-01T08:43:22.148Z,1180.00
2018-02-01T08:44:22.095Z,1252.00
2018-02-01T08:45:22.046Z,1288.00
2018-02-01T08:46:21.999Z,1276.00
2018-02-01T08:47:21.948Z,1276.00
2018-02-01T08:48:21.906Z,1312.00
2018-02-01T08:49:21.855Z,1396.00
2018-02-01T08:50:21.807Z,1516.00
2018-02-01T08:51:21.761Z,1532.00
2018-02-01T08:52:21.710Z,1416.00
2018-02-01T08:53:21.661Z,1320.00
2018-02-01T08:54:21.612Z,1248.00
2018-02-01T08:55:21.563Z,1256.00
2018-02-01T08:56:21.515Z,1320.00
2018-02-01T08:57:21.471Z,1448.00
2018-02-01T08:58:21.421Z,1444.00
2018-02-01T08:59:21.375Z,1264.00
2018-02-01T09:00:21.325Z,1220.00
2018-02-01T09:01:21.275Z,1184.00
2018-02-01T09:02:21.230Z,1204.00
2018-02-01T09:03:21.181Z,1244.00
2018-02-01T09:04:21.134Z,1380.00
2018-02-01T09:05:21.081Z,1588.00
2018-02-01T09:06:21.038Z,1556.00
2018-02-01T09:07:20.986Z,1536.00
2018-02-01T09:08:20.941Z,1516.00
2018-02-01T09:09:20.895Z,1616.00
2018-02-01T09:10:20.846Z,1620.00
2018-02-01T09:11:20.792Z,1596.00
2018-02-01T09:12:20.746Z,1540.00
2018-02-01T09:13:20.698Z,1508.00
2018-02-01T09:14:20.650Z,1420.00
2018-02-01T09:15:20.600Z,1240.00
2018-02-01T09:16:20.553Z,1128.00
2018-02-01T09:17:20.506Z,1064.00
2018-02-01T09:18:20.460Z,1060.00
2018-02-01T09:19:20.409Z,992.00
2018-02-01T09:20:20.361Z,1084.00
2018-02-01T09:21:20.313Z,1148.00
2018-02-01T09:22:20.265Z,1276.00
2018-02-01T09:23:20.225Z,1340.00
2018-02-01T09:24:20.173Z,1316.00
2018-02-01T09:25:20.125Z,1312.00
2018-02-01T09:26:20.072Z,1444.00
2018-02-01T09:27:20.026Z,1496.00
2018-02-01T09:28:19.980Z,1376.00
2018-02-01T09:29:19.931Z,1396.00
2018-02-01T09:30:19.883Z,1488.00
2018-02-01T09:31:19.833Z,1376.00
2018-02-01T09:32:19.789Z,1252.00
2018-02-01T09:33:19.740Z,1192.00
2018-02-01T09:34:19.693Z,1184.00
2018-02-01T09:35:19.656Z,1208.00
2018-02-01T09:36:19.735Z,1224.00
2018-02-01T09:37:19.553Z,1232.00
2018-02-01T09:38:19.502Z,1240.00
2018-02-01T09:39:19.613Z,1140.00
2018-02-01T09:40:19.687Z,1292.00
2018-02-01T09:41:19.648Z,1240.00
2018-02-01T09:42:19.537Z,1320.00
2018-02-01T09:43:20.116Z,1300.00
2018-02-01T09:44:19.304Z,1608.00
2018-02-01T09:45:19.249Z,1560.00
2018-02-01T09:46:19.489Z,1500.00
2018-02-01T09:47:19.314Z,1604.00
2018-02-01T09:48:19.235Z,1692.00
2018-02-01T09:49:18.977Z,1784.00
2018-02-01T09:50:19.196Z,1836.00
2018-02-01T09:51:20.133Z,1712.00
2018-02-01T09:52:19.215Z,1912.00
2018-02-01T09:53:19.005Z,1900.00
2018-02-01T09:54:19.461Z,1908.00
2018-02-01T09:55:18.806Z,1852.00
2018-02-01T09:56:18.756Z,1844.00
2018-02-01T09:57:19.121Z,1672.00
2018-02-01T09:58:19.432Z,1568.00
2018-02-01T09:59:18.711Z,1588.00
2018-02-01T10:00:18.746Z,1448.00
2018-02-01T10:01:19.808Z,1352.00
2018-02-01T10:02:18.676Z,1228.00
2018-02-01T10:03:18.507Z,1160.00
2018-02-01T10:04:19.036Z,1108.00
2018-02-01T10:06:18.342Z,1524.00
2018-02-01T10:07:18.210Z,1656.00
2018-02-01T10:08:18.284Z,2180.00
2018-02-01T10:09:18.098Z,1824.00
2018-02-01T10:10:18.131Z,1432.00
2018-02-01T10:11:18.083Z,1428.00
2018-02-01T10:12:19.887Z,1152.00
2018-02-01T10:13:17.984Z,1076.00
2018-02-01T10:14:17.911Z,904.00
2018-02-01T10:15:18.057Z,836.00
2018-02-01T10:16:17.812Z,908.00
2018-02-01T10:17:17.761Z,1152.00
2018-02-01T10:18:17.912Z,1284.00
2018-02-01T10:19:17.774Z,884.00
2018-02-01T10:20:17.753Z,1020.00
2018-02-01T10:21:17.878Z,956.00
2018-02-01T10:22:17.550Z,1144.00
2018-02-01T10:23:18.622Z,1468.00
2018-02-01T10:24:18.004Z,1328.00
2018-02-01T10:25:17.853Z,1076.00
2018-02-01T10:26:17.316Z,764.00
2018-02-01T10:27:17.277Z,600.00
2018-02-01T10:28:17.236Z,640.00
2018-02-01T10:29:18.418Z,792.00
2018-02-01T10:30:17.126Z,1052.00
2018-02-01T10:31:17.261Z,1096.00
2018-02-01T10:32:17.824Z,1040.00
2018-02-01T10:33:19.582Z,1112.00
2018-02-01T10:34:18.001Z,1008.00
2018-02-01T10:35:17.050Z,816.00
2018-02-01T10:36:18.359Z,1092.00
2018-02-01T10:37:17.025Z,1200.00
2018-02-01T10:38:16.775Z,1468.00
2018-02-01T10:39:16.603Z,1512.00
2018-02-01T10:40:16.737Z,1692.00
2018-02-01T10:41:16.648Z,1764.00
2018-02-01T10:42:16.631Z,1512.00
2018-02-01T10:43:16.540Z,1252.00
2018-02-01T10:44:16.369Z,1312.00
2018-02-01T10:45:16.538Z,1344.00
2018-02-01T10:46:16.401Z,1504.00
2018-02-01T10:47:16.318Z,1476.00
2018-02-01T10:48:16.253Z,1628.00
2018-02-01T10:49:16.259Z,1492.00
2018-02-01T10:50:16.247Z,1564.00
2018-02-01T10:51:16.898Z,1460.00
2018-02-01T10:52:16.137Z,1720.00
2018-02-01T10:53:16.090Z,1712.00
2018-02-01T10:54:15.987Z,1372.00
2018-02-01T10:55:15.931Z,1316.00
2018-02-01T10:56:15.938Z,1148.00
2018-02-01T10:57:15.941Z,1020.00
2018-02-01T10:58:15.824Z,904.00
2018-02-01T10:59:15.694Z,856.00
2018-02-01T11:00:15.719Z,932.00
2018-02-01T11:01:15.654Z,956.00
2018-02-01T11:02:15.716Z,792.00
2018-02-01T11:03:15.686Z,712.00
2018-02-01T11:04:15.511Z,780.00
2018-02-01T11:05:15.493Z,688.00
2018-02-01T11:06:15.344Z,676.00
2018-02-01T11:07:15.374Z,868.00
2018-02-01T11:08:15.362Z,772.00
2018-02-01T11:09:15.191Z,608.00
2018-02-01T11:10:15.224Z,592.00
2018-02-01T11:11:15.252Z,412.00
2018-02-01T11:12:15.211Z,452.00
2018-02-01T11:13:15.127Z,484.00
2018-02-01T11:14:15.065Z,524.00
2018-02-01T11:15:14.991Z,688.00
2018-02-01T11:16:14.992Z,620.00
2018-02-01T11:17:14.911Z,620.00
2018-02-01T11:18:14.890Z,628.00
2018-02-01T11:19:15.050Z,668.00
2018-02-01T11:20:14.732Z,728.00
2018-02-01T11:21:14.851Z,748.00
2018-02-01T11:22:14.714Z,712.00
2018-02-01T11:23:14.596Z,688.00
2018-02-01T11:24:14.662Z,640.00
2018-02-01T11:25:14.461Z,644.00
2018-02-01T11:26:14.589Z,584.00
2018-02-01T11:27:14.447Z,388.00
2018-02-01T11:28:14.445Z,472.00
2018-02-01T11:29:14.428Z,712.00
2018-02-01T11:30:14.301Z,1124.00
2018-02-01T11:31:14.156Z,1144.00
2018-02-01T11:32:14.166Z,1152.00
2018-02-01T11:33:14.063Z,1632.00
2018-02-01T11:34:14.044Z,1648.00
2018-02-01T11:35:13.992Z,1244.00
2018-02-01T11:36:13.971Z,1212.00
2018-02-01T11:37:13.928Z,1280.00
2018-02-01T11:38:13.911Z,1300.00
2018-02-01T11:39:13.823Z,1164.00
2018-02-01T11:40:13.772Z,1588.00
2018-02-01T11:41:13.784Z,1744.00
2018-02-01T11:42:13.715Z,1248.00
2018-02-01T11:43:13.941Z,864.00
2018-02-01T11:44:13.636Z,924.00
2018-02-01T11:45:13.578Z,1164.00
2018-02-01T11:46:13.463Z,1144.00
2018-02-01T11:47:13.404Z,980.00
2018-02-01T11:48:13.424Z,1384.00
2018-02-01T11:49:13.401Z,1356.00
2018-02-01T11:50:13.370Z,1144.00
2018-02-01T11:51:13.314Z,1216.00
2018-02-01T11:52:13.324Z,1948.00
2018-02-01T11:53:13.228Z,2144.00
2018-02-01T11:54:13.174Z,1944.00
2018-02-01T11:55:13.078Z,1768.00
2018-02-01T11:56:13.036Z,1920.00
2018-02-01T11:57:13.107Z,1620.00
2018-02-01T11:58:13.033Z,1116.00
2018-02-01T11:59:12.925Z,1092.00
2018-02-01T12:00:12.914Z,928.00
2018-02-01T12:01:12.845Z,1196.00
2018-02-01T12:02:12.806Z,1012.00
2018-02-01T12:03:12.723Z,1032.00
2018-02-01T12:04:12.661Z,924.00
2018-02-01T12:05:12.670Z,844.00
2018-02-01T12:06:12.559Z,820.00
2018-02-01T12:07:12.560Z,724.00
2018-02-01T12:08:12.479Z,708.00
2018-02-01T12:09:12.481Z,688.00
2018-02-01T12:10:12.388Z,596.00
2018-02-01T12:11:12.301Z,772.00
2018-02-01T12:12:12.267Z,676.00
2018-02-01T12:13:12.266Z,704.00
2018-02-01T12:14:12.276Z,640.00
2018-02-01T12:15:12.128Z,660.00
2018-02-01T12:16:12.190Z,612.00
2018-02-01T12:17:12.094Z,656.00
2018-02-01T12:18:12.053Z,688.00
2018-02-01T12:19:11.985Z,716.00
2018-02-01T12:20:11.916Z,612.00
2018-02-01T12:21:11.902Z,848.00
2018-02-01T12:22:11.931Z,824.00
2018-02-01T12:23:11.933Z,708.00
2018-02-01T12:24:11.770Z,824.00
2018-02-01T12:25:11.691Z,672.00
2018-02-01T12:27:11.612Z,828.00
2018-02-01T12:28:11.689Z,784.00
2018-02-01T12:29:11.543Z,820.00
2018-02-01T12:30:11.451Z,1084.00
2018-02-01T12:31:11.354Z,848.00
2018-02-01T12:32:11.305Z,736.00
2018-02-01T12:33:11.234Z,1048.00
2018-02-01T12:34:11.249Z,1008.00
2018-02-01T12:35:11.197Z,1148.00
2018-02-01T12:36:11.186Z,1032.00
2018-02-01T12:37:11.124Z,980.00
2018-02-01T12:38:11.094Z,1292.00
2018-02-01T12:39:11.050Z,960.00
2018-02-01T12:40:11.003Z,912.00
2018-02-01T12:41:10.950Z,916.00
2018-02-01T12:43:10.847Z,664.00
2018-02-01T12:44:10.809Z,812.00
2018-02-01T12:45:10.772Z,852.00
2018-02-01T12:46:10.619Z,720.00
2018-02-01T12:47:10.570Z,908.00
2018-02-01T12:48:10.525Z,780.00
2018-02-01T12:49:10.477Z,720.00
2018-02-01T12:50:10.428Z,1056.00
2018-02-01T12:51:10.385Z,1160.00
2018-02-01T12:52:10.338Z,1236.00